ASA7096 PANC-PAJN
Flight info
| Callsign | ASA7096 |
|---|---|
| Flight time | 1h 13m |
| Altitude | 39000 |
| Route | JOH J501 YAK FAKES ASORT |
| Aircraft | B737/M-SDE2E3FGHIRWXY/LB1 |
Departure
| Time | 2026-05-04 23:00 |
|---|---|
| Airport | Ted Stevens Anchorage International Airport (PANC) |
Arrival
| Time | 2026-05-05 00:13 |
|---|---|
| Airport | Juneau International Airport (PAJN) |
| Time | Latitude | Longitude | Altitude | Speed | Heading |
|---|---|---|---|---|---|
| 2026-05-04 22:40 | 61.17393 | -149.99034 | 106 ft | 0 kts | 69° |
| 2026-05-04 22:52 | 61.17401 | -149.98991 | 104 ft | 4 kts | 69° |
| 2026-05-04 22:52 | 61.17410 | -149.98939 | 105 ft | 4 kts | 69° |
| 2026-05-04 22:52 | 61.17419 | -149.98887 | 105 ft | 4 kts | 69° |
| 2026-05-04 22:53 | 61.17421 | -149.98879 | 105 ft | 0 kts | 69° |
| 2026-05-04 22:55 | 61.17421 | -149.98878 | 105 ft | 0 kts | 71° |
| 2026-05-04 22:55 | 61.17416 | -149.98872 | 105 ft | 1 kts | 144° |
| 2026-05-04 22:56 | 61.17360 | -149.98889 | 106 ft | 16 kts | 207° |
| 2026-05-04 22:56 | 61.17303 | -149.99109 | 110 ft | 16 kts | 230° |
| 2026-05-04 22:56 | 61.17209 | -149.99128 | 112 ft | 14 kts | 163° |
| 2026-05-04 22:56 | 61.17107 | -149.99087 | 114 ft | 6 kts | 206° |
| 2026-05-04 22:57 | 61.17113 | -149.99143 | 114 ft | 10 kts | 299° |
| 2026-05-04 22:57 | 61.17125 | -149.99325 | 119 ft | 18 kts | 270° |
| 2026-05-04 22:57 | 61.17124 | -149.99624 | 125 ft | 22 kts | 271° |
| 2026-05-04 22:57 | 61.17126 | -149.99968 | 132 ft | 25 kts | 270° |
| 2026-05-04 22:58 | 61.17131 | -150.00333 | 136 ft | 25 kts | 272° |
| 2026-05-04 22:58 | 61.17127 | -150.00669 | 136 ft | 19 kts | 266° |
| 2026-05-04 22:58 | 61.17060 | -150.00817 | 134 ft | 9 kts | 176° |
| 2026-05-04 22:58 | 61.17003 | -150.00810 | 135 ft | 7 kts | 179° |
| 2026-05-04 22:59 | 61.16973 | -150.00799 | 136 ft | 1 kts | 132° |
| 2026-05-04 22:59 | 61.16973 | -150.00796 | 136 ft | 0 kts | 113° |
| 2026-05-04 23:00 | 61.16968 | -150.00479 | 135 ft | 70 kts | 91° |
| 2026-05-04 23:00 | 61.16971 | -149.98694 | 153 ft | 171 kts | 91° |
| 2026-05-04 23:00 | 61.16927 | -149.96016 | 1169 ft | 193 kts | 89° |
| 2026-05-04 23:00 | 61.16861 | -149.93220 | 2467 ft | 196 kts | 94° |
| 2026-05-04 23:01 | 61.16599 | -149.90391 | 3199 ft | 214 kts | 110° |
| 2026-05-04 23:01 | 61.15986 | -149.87263 | 3618 ft | 247 kts | 115° |
| 2026-05-04 23:01 | 61.15304 | -149.84075 | 4989 ft | 238 kts | 115° |
| 2026-05-04 23:01 | 61.14657 | -149.81013 | 6617 ft | 227 kts | 116° |
| 2026-05-04 23:02 | 61.14017 | -149.77943 | 7673 ft | 238 kts | 117° |
| 2026-05-04 23:02 | 61.13360 | -149.74746 | 8692 ft | 245 kts | 117° |
| 2026-05-04 23:02 | 61.12694 | -149.71455 | 9778 ft | 251 kts | 118° |
| 2026-05-04 23:02 | 61.12019 | -149.68082 | 10721 ft | 257 kts | 118° |
| 2026-05-04 23:03 | 61.11333 | -149.64623 | 11677 ft | 263 kts | 118° |
| 2026-05-04 23:03 | 61.10634 | -149.61076 | 12639 ft | 270 kts | 118° |
| 2026-05-04 23:03 | 61.09922 | -149.57445 | 13611 ft | 276 kts | 118° |
| 2026-05-04 23:03 | 61.09179 | -149.53751 | 14512 ft | 279 kts | 120° |
| 2026-05-04 23:04 | 61.08434 | -149.50079 | 15528 ft | 282 kts | 118° |
| 2026-05-04 23:04 | 61.07710 | -149.46304 | 16546 ft | 283 kts | 119° |
| 2026-05-04 23:04 | 61.07004 | -149.42455 | 17423 ft | 289 kts | 118° |
| 2026-05-04 23:04 | 61.06266 | -149.38558 | 18324 ft | 293 kts | 119° |
| 2026-05-04 23:05 | 61.05502 | -149.34663 | 19185 ft | 294 kts | 118° |
| 2026-05-04 23:05 | 61.04727 | -149.30728 | 19961 ft | 296 kts | 119° |
| 2026-05-04 23:05 | 61.03957 | -149.26806 | 20955 ft | 295 kts | 119° |
| 2026-05-04 23:05 | 61.03176 | -149.22891 | 21831 ft | 296 kts | 119° |
| 2026-05-04 23:06 | 61.02392 | -149.18915 | 22664 ft | 300 kts | 119° |
| 2026-05-04 23:06 | 61.01607 | -149.14922 | 23572 ft | 301 kts | 118° |
| 2026-05-04 23:06 | 61.00814 | -149.10910 | 24315 ft | 303 kts | 119° |
| 2026-05-04 23:06 | 61.00018 | -149.06876 | 25021 ft | 307 kts | 119° |
| 2026-05-04 23:07 | 60.99204 | -149.02774 | 25771 ft | 309 kts | 120° |
| 2026-05-04 23:07 | 60.98385 | -148.98650 | 26419 ft | 312 kts | 120° |
| 2026-05-04 23:07 | 60.97551 | -148.94470 | 27093 ft | 316 kts | 120° |
| 2026-05-04 23:07 | 60.96721 | -148.90325 | 27734 ft | 319 kts | 120° |
| 2026-05-04 23:08 | 60.95886 | -148.86127 | 28586 ft | 316 kts | 121° |
| 2026-05-04 23:08 | 60.95049 | -148.81934 | 29246 ft | 320 kts | 121° |
| 2026-05-04 23:08 | 60.94192 | -148.77665 | 29798 ft | 325 kts | 121° |
| 2026-05-04 23:08 | 60.93321 | -148.73343 | 30244 ft | 328 kts | 121° |
| 2026-05-04 23:09 | 60.92438 | -148.68986 | 30611 ft | 332 kts | 121° |
| 2026-05-04 23:09 | 60.91549 | -148.64587 | 31041 ft | 335 kts | 121° |
| 2026-05-04 23:09 | 60.90650 | -148.60127 | 31478 ft | 339 kts | 121° |
| 2026-05-04 23:09 | 60.89742 | -148.55634 | 31896 ft | 342 kts | 122° |
| 2026-05-04 23:10 | 60.88820 | -148.51090 | 32313 ft | 347 kts | 122° |
| 2026-05-04 23:10 | 60.87880 | -148.46486 | 32693 ft | 351 kts | 122° |
| 2026-05-04 23:10 | 60.86929 | -148.41838 | 33106 ft | 354 kts | 122° |
| 2026-05-04 23:10 | 60.85973 | -148.37164 | 33500 ft | 358 kts | 122° |
| 2026-05-04 23:11 | 60.85007 | -148.32452 | 33890 ft | 361 kts | 123° |
| 2026-05-04 23:11 | 60.84037 | -148.27725 | 34187 ft | 365 kts | 123° |
| 2026-05-04 23:11 | 60.83061 | -148.22974 | 34475 ft | 368 kts | 123° |
| 2026-05-04 23:11 | 60.82063 | -148.18138 | 34709 ft | 372 kts | 123° |
| 2026-05-04 23:12 | 60.81049 | -148.13246 | 34927 ft | 377 kts | 123° |
| 2026-05-04 23:12 | 60.80019 | -148.08283 | 35160 ft | 381 kts | 122° |
| 2026-05-04 23:12 | 60.78974 | -148.03264 | 35385 ft | 385 kts | 122° |
| 2026-05-04 23:12 | 60.77933 | -147.98267 | 35604 ft | 389 kts | 122° |
| 2026-05-04 23:13 | 60.76867 | -147.93162 | 35824 ft | 392 kts | 122° |
| 2026-05-04 23:13 | 60.76153 | -147.89752 | 35960 ft | 395 kts | 122° |
| 2026-05-04 23:13 | 60.74716 | -147.82901 | 36229 ft | 399 kts | 122° |
| 2026-05-04 23:13 | 60.73615 | -147.77671 | 36427 ft | 402 kts | 121° |
| 2026-05-04 23:14 | 60.72502 | -147.72395 | 36620 ft | 406 kts | 121° |
| 2026-05-04 23:14 | 60.71376 | -147.67073 | 36805 ft | 409 kts | 121° |
| 2026-05-04 23:14 | 60.70629 | -147.63546 | 36944 ft | 409 kts | 122° |
| 2026-05-04 23:14 | 60.69496 | -147.58206 | 37216 ft | 410 kts | 122° |
| 2026-05-04 23:15 | 60.68351 | -147.52829 | 37368 ft | 414 kts | 122° |
| 2026-05-04 23:15 | 60.67196 | -147.47428 | 37504 ft | 418 kts | 122° |
| 2026-05-04 23:15 | 60.66030 | -147.41986 | 37675 ft | 420 kts | 121° |
| 2026-05-04 23:15 | 60.64855 | -147.36513 | 37921 ft | 421 kts | 121° |
| 2026-05-04 23:16 | 60.63678 | -147.31036 | 38170 ft | 422 kts | 121° |
| 2026-05-04 23:16 | 60.62494 | -147.25547 | 38380 ft | 424 kts | 121° |
| 2026-05-04 23:16 | 60.61301 | -147.20030 | 38587 ft | 425 kts | 121° |
| 2026-05-04 23:16 | 60.60107 | -147.14523 | 38758 ft | 426 kts | 121° |
| 2026-05-04 23:17 | 60.58916 | -147.09048 | 38901 ft | 428 kts | 121° |
| 2026-05-04 23:17 | 60.57709 | -147.03513 | 39000 ft | 429 kts | 122° |
| 2026-05-04 23:17 | 60.55270 | -146.92377 | 39054 ft | 435 kts | 122° |
| 2026-05-04 23:18 | 60.52775 | -146.81038 | 39066 ft | 443 kts | 121° |
| 2026-05-04 23:18 | 60.50237 | -146.69536 | 39065 ft | 449 kts | 121° |
| 2026-05-04 23:19 | 60.47812 | -146.57778 | 39046 ft | 458 kts | 114° |
| 2026-05-04 23:19 | 60.46351 | -146.45104 | 39042 ft | 462 kts | 110° |
| 2026-05-04 23:20 | 60.45002 | -146.32467 | 39055 ft | 461 kts | 110° |
| 2026-05-04 23:20 | 60.43605 | -146.19784 | 39046 ft | 461 kts | 111° |
| 2026-05-04 23:21 | 60.42170 | -146.07114 | 39051 ft | 461 kts | 111° |
| 2026-05-04 23:21 | 60.40716 | -145.94461 | 39046 ft | 461 kts | 111° |
| 2026-05-04 23:22 | 60.39264 | -145.81937 | 39046 ft | 461 kts | 111° |
| 2026-05-04 23:22 | 60.37788 | -145.69293 | 39021 ft | 461 kts | 112° |
| 2026-05-04 23:23 | 60.36303 | -145.56691 | 39056 ft | 461 kts | 112° |
| 2026-05-04 23:23 | 60.34813 | -145.44134 | 39064 ft | 462 kts | 112° |
| 2026-05-04 23:24 | 60.33302 | -145.31519 | 39064 ft | 462 kts | 112° |
| 2026-05-04 23:24 | 60.31783 | -145.18990 | 39052 ft | 462 kts | 112° |
| 2026-05-04 23:25 | 60.30241 | -145.06392 | 39052 ft | 462 kts | 112° |
| 2026-05-04 23:25 | 60.28690 | -144.93785 | 39048 ft | 462 kts | 113° |
| 2026-05-04 23:26 | 60.27131 | -144.81189 | 39050 ft | 463 kts | 113° |
| 2026-05-04 23:26 | 60.25565 | -144.68667 | 39046 ft | 463 kts | 113° |
| 2026-05-04 23:27 | 60.23970 | -144.56099 | 39065 ft | 464 kts | 114° |
| 2026-05-04 23:27 | 60.22359 | -144.43510 | 39059 ft | 464 kts | 114° |
| 2026-05-04 23:28 | 60.20739 | -144.30918 | 39028 ft | 464 kts | 114° |
| 2026-05-04 23:28 | 60.19110 | -144.18342 | 39044 ft | 465 kts | 114° |
| 2026-05-04 23:29 | 60.17469 | -144.05765 | 39046 ft | 465 kts | 114° |
| 2026-05-04 23:29 | 60.15825 | -143.93269 | 39054 ft | 465 kts | 114° |
| 2026-05-04 23:30 | 60.14160 | -143.80727 | 39051 ft | 465 kts | 114° |
| 2026-05-04 23:30 | 60.12481 | -143.68178 | 39050 ft | 465 kts | 114° |
| 2026-05-04 23:31 | 60.10789 | -143.55636 | 39057 ft | 465 kts | 114° |
| 2026-05-04 23:31 | 60.09098 | -143.43197 | 39055 ft | 465 kts | 115° |
| 2026-05-04 23:32 | 60.07386 | -143.30703 | 39055 ft | 465 kts | 115° |
| 2026-05-04 23:32 | 60.05661 | -143.18221 | 39064 ft | 465 kts | 115° |
| 2026-05-04 23:33 | 60.03928 | -143.05770 | 39066 ft | 464 kts | 115° |
| 2026-05-04 23:33 | 60.02182 | -142.93331 | 39064 ft | 463 kts | 115° |
| 2026-05-04 23:34 | 60.00424 | -142.80909 | 39069 ft | 464 kts | 115° |
| 2026-05-04 23:34 | 59.98662 | -142.68547 | 39063 ft | 465 kts | 116° |
| 2026-05-04 23:35 | 59.96878 | -142.56112 | 39071 ft | 465 kts | 116° |
| 2026-05-04 23:35 | 59.95083 | -142.43700 | 39074 ft | 466 kts | 116° |
| 2026-05-04 23:36 | 59.93272 | -142.31280 | 39053 ft | 465 kts | 116° |
| 2026-05-04 23:36 | 59.91453 | -142.18893 | 39065 ft | 466 kts | 116° |
| 2026-05-04 23:37 | 59.89631 | -142.06579 | 39069 ft | 466 kts | 116° |
| 2026-05-04 23:37 | 59.87785 | -141.94196 | 39078 ft | 466 kts | 116° |
| 2026-05-04 23:38 | 59.85927 | -141.81819 | 39074 ft | 467 kts | 116° |
| 2026-05-04 23:38 | 59.84059 | -141.69474 | 39043 ft | 467 kts | 117° |
| 2026-05-04 23:39 | 59.82180 | -141.57142 | 39071 ft | 467 kts | 117° |
| 2026-05-04 23:39 | 59.80283 | -141.44787 | 39086 ft | 467 kts | 117° |
| 2026-05-04 23:40 | 59.78390 | -141.32533 | 39081 ft | 467 kts | 117° |
| 2026-05-04 23:40 | 59.76471 | -141.20211 | 39082 ft | 467 kts | 117° |
| 2026-05-04 23:41 | 59.74536 | -141.07874 | 39085 ft | 467 kts | 117° |
| 2026-05-04 23:41 | 59.72593 | -140.95574 | 39080 ft | 467 kts | 118° |
| 2026-05-04 23:42 | 59.70639 | -140.83290 | 39089 ft | 468 kts | 118° |
| 2026-05-04 23:42 | 59.68669 | -140.70997 | 39087 ft | 470 kts | 118° |
| 2026-05-04 23:43 | 59.66695 | -140.58755 | 39094 ft | 470 kts | 118° |
| 2026-05-04 23:43 | 59.64695 | -140.46431 | 39093 ft | 470 kts | 118° |
| 2026-05-04 23:44 | 59.62685 | -140.34135 | 39084 ft | 470 kts | 118° |
| 2026-05-04 23:44 | 59.60660 | -140.21838 | 39093 ft | 471 kts | 118° |
| 2026-05-04 23:45 | 59.58629 | -140.09590 | 39119 ft | 472 kts | 118° |
| 2026-05-04 23:45 | 59.56590 | -139.97363 | 39117 ft | 472 kts | 119° |
| 2026-05-04 23:46 | 59.54527 | -139.85063 | 39120 ft | 472 kts | 119° |
| 2026-05-04 23:46 | 59.52454 | -139.72784 | 39079 ft | 472 kts | 119° |
| 2026-05-04 23:47 | 59.50114 | -139.60784 | 39098 ft | 462 kts | 128° |
| 2026-05-04 23:47 | 59.47039 | -139.49770 | 39097 ft | 458 kts | 130° |
| 2026-05-04 23:48 | 59.43913 | -139.38866 | 39101 ft | 457 kts | 130° |
| 2026-05-04 23:48 | 59.40838 | -139.28021 | 39109 ft | 458 kts | 130° |
| 2026-05-04 23:49 | 59.37750 | -139.17062 | 39070 ft | 458 kts | 129° |
| 2026-05-04 23:49 | 59.34657 | -139.06114 | 39101 ft | 459 kts | 129° |
| 2026-05-04 23:50 | 59.31551 | -138.95170 | 39116 ft | 460 kts | 130° |
| 2026-05-04 23:50 | 59.28422 | -138.84201 | 39114 ft | 461 kts | 130° |
| 2026-05-04 23:51 | 59.25283 | -138.73249 | 39116 ft | 462 kts | 130° |
| 2026-05-04 23:51 | 59.22153 | -138.62380 | 39079 ft | 462 kts | 129° |
| 2026-05-04 23:52 | 59.18988 | -138.51428 | 39111 ft | 463 kts | 129° |
| 2026-05-04 23:52 | 59.15812 | -138.40499 | 39111 ft | 464 kts | 129° |
| 2026-05-04 23:53 | 59.12631 | -138.29611 | 39115 ft | 465 kts | 129° |
| 2026-05-04 23:53 | 59.09415 | -138.18654 | 39109 ft | 466 kts | 129° |
| 2026-05-04 23:54 | 59.06186 | -138.07699 | 39053 ft | 467 kts | 130° |
| 2026-05-04 23:54 | 59.02965 | -137.96828 | 39098 ft | 468 kts | 129° |
| 2026-05-04 23:55 | 58.99709 | -137.85867 | 39109 ft | 467 kts | 130° |
| 2026-05-04 23:56 | 58.94827 | -137.69567 | 39097 ft | 465 kts | 130° |
| 2026-05-04 23:56 | 58.91594 | -137.58831 | 39081 ft | 465 kts | 130° |
| 2026-05-04 23:57 | 58.88320 | -137.47990 | 39086 ft | 467 kts | 130° |
| 2026-05-04 23:57 | 58.85038 | -137.37168 | 39084 ft | 466 kts | 130° |
| 2026-05-04 23:58 | 58.81742 | -137.26375 | 39100 ft | 466 kts | 130° |
| 2026-05-04 23:58 | 58.78457 | -137.15644 | 39096 ft | 464 kts | 130° |
| 2026-05-04 23:59 | 58.75172 | -137.04973 | 39026 ft | 464 kts | 130° |
| 2026-05-04 23:59 | 58.73557 | -136.99727 | 38879 ft | 456 kts | 130° |
| 2026-05-04 23:59 | 58.71952 | -136.94510 | 38310 ft | 451 kts | 130° |
| 2026-05-04 23:59 | 58.70350 | -136.89338 | 37510 ft | 452 kts | 130° |
| 2026-05-05 00:00 | 58.68726 | -136.84129 | 36637 ft | 454 kts | 130° |
| 2026-05-05 00:00 | 58.68177 | -136.82371 | 36323 ft | 455 kts | 130° |
| 2026-05-05 00:00 | 58.65450 | -136.73652 | 34878 ft | 460 kts | 129° |
| 2026-05-05 00:00 | 58.63793 | -136.68361 | 34020 ft | 462 kts | 129° |
| 2026-05-05 00:01 | 58.62131 | -136.63059 | 32966 ft | 465 kts | 128° |
| 2026-05-05 00:01 | 58.60460 | -136.57737 | 31944 ft | 467 kts | 128° |
| 2026-05-05 00:01 | 58.58772 | -136.52375 | 30850 ft | 470 kts | 128° |
| 2026-05-05 00:01 | 58.57073 | -136.46971 | 29626 ft | 475 kts | 128° |
| 2026-05-05 00:02 | 58.55352 | -136.41532 | 28302 ft | 478 kts | 128° |
| 2026-05-05 00:02 | 58.53632 | -136.36106 | 27385 ft | 474 kts | 128° |
| 2026-05-05 00:02 | 58.51959 | -136.30827 | 26695 ft | 464 kts | 128° |
| 2026-05-05 00:02 | 58.50298 | -136.25599 | 25974 ft | 457 kts | 128° |
| 2026-05-05 00:03 | 58.48653 | -136.20439 | 25176 ft | 451 kts | 128° |
| 2026-05-05 00:03 | 58.47020 | -136.15339 | 24359 ft | 447 kts | 128° |
| 2026-05-05 00:03 | 58.45404 | -136.10293 | 23542 ft | 443 kts | 127° |
| 2026-05-05 00:03 | 58.43802 | -136.05300 | 22709 ft | 437 kts | 127° |
| 2026-05-05 00:04 | 58.42750 | -136.02034 | 22169 ft | 432 kts | 127° |
| 2026-05-05 00:04 | 58.41184 | -135.97182 | 21376 ft | 427 kts | 127° |
| 2026-05-05 00:04 | 58.39638 | -135.92397 | 20602 ft | 421 kts | 127° |
| 2026-05-05 00:04 | 58.38114 | -135.87689 | 20045 ft | 412 kts | 126° |
| 2026-05-05 00:05 | 58.36953 | -135.82808 | 19898 ft | 401 kts | 113° |
| 2026-05-05 00:05 | 58.36189 | -135.77810 | 19795 ft | 385 kts | 110° |
| 2026-05-05 00:05 | 58.35334 | -135.71451 | 19671 ft | 364 kts | 110° |
| 2026-05-05 00:05 | 58.34930 | -135.68336 | 19625 ft | 354 kts | 110° |
| 2026-05-05 00:06 | 58.34361 | -135.63873 | 19469 ft | 342 kts | 109° |
| 2026-05-05 00:06 | 58.33795 | -135.59418 | 18666 ft | 352 kts | 109° |
| 2026-05-05 00:06 | 58.33245 | -135.54827 | 17597 ft | 369 kts | 105° |
| 2026-05-05 00:06 | 58.32808 | -135.49991 | 16833 ft | 373 kts | 104° |
| 2026-05-05 00:07 | 58.32392 | -135.45135 | 16260 ft | 370 kts | 103° |
| 2026-05-05 00:07 | 58.31973 | -135.40340 | 15753 ft | 364 kts | 103° |
| 2026-05-05 00:07 | 58.31547 | -135.35597 | 14975 ft | 366 kts | 103° |
| 2026-05-05 00:07 | 58.31090 | -135.30764 | 13984 ft | 376 kts | 103° |
| 2026-05-05 00:08 | 58.30603 | -135.25869 | 12881 ft | 382 kts | 103° |
| 2026-05-05 00:08 | 58.30095 | -135.20910 | 11771 ft | 386 kts | 103° |
| 2026-05-05 00:08 | 58.29561 | -135.15891 | 10745 ft | 388 kts | 103° |
| 2026-05-05 00:08 | 58.29010 | -135.10872 | 9751 ft | 388 kts | 103° |
| 2026-05-05 00:09 | 58.28447 | -135.05857 | 8695 ft | 387 kts | 103° |
| 2026-05-05 00:09 | 58.27883 | -135.00928 | 7699 ft | 385 kts | 103° |
| 2026-05-05 00:09 | 58.27362 | -134.95979 | 6754 ft | 382 kts | 97° |
| 2026-05-05 00:09 | 58.27358 | -134.91123 | 5893 ft | 377 kts | 86° |
| 2026-05-05 00:10 | 58.27568 | -134.86213 | 5190 ft | 368 kts | 85° |
| 2026-05-05 00:10 | 58.27808 | -134.81520 | 4624 ft | 346 kts | 85° |
| 2026-05-05 00:10 | 58.28107 | -134.77209 | 3891 ft | 313 kts | 76° |
| 2026-05-05 00:10 | 58.28834 | -134.73621 | 3202 ft | 281 kts | 66° |
| 2026-05-05 00:11 | 58.29822 | -134.70611 | 2459 ft | 260 kts | 43° |
| 2026-05-05 00:11 | 58.31375 | -134.69179 | 1741 ft | 245 kts | 7° |
| 2026-05-05 00:11 | 58.32975 | -134.69580 | 1295 ft | 220 kts | 350° |
| 2026-05-05 00:11 | 58.34352 | -134.69253 | 1072 ft | 189 kts | 28° |
| 2026-05-05 00:12 | 58.35137 | -134.67474 | 802 ft | 172 kts | 69° |
| 2026-05-05 00:12 | 58.35512 | -134.65417 | 613 ft | 161 kts | 72° |
| 2026-05-05 00:12 | 58.35816 | -134.63528 | 616 ft | 152 kts | 75° |
| 2026-05-05 00:12 | 58.35958 | -134.61454 | 323 ft | 158 kts | 95° |
| 2026-05-05 00:13 | 58.35723 | -134.59295 | 55 ft | 168 kts | 107° |
| 2026-05-05 00:13 | 58.35446 | -134.57339 | 32 ft | 138 kts | 104° |
| 2026-05-05 00:13 | 58.35252 | -134.55876 | 31 ft | 81 kts | 105° |
| 2026-05-05 00:13 | 58.35211 | -134.55567 | 31 ft | 10 kts | 102° |
| 2026-05-05 00:14 | 58.35191 | -134.55426 | 31 ft | 11 kts | 96° |
| 2026-05-05 00:14 | 58.35224 | -134.55334 | 32 ft | 9 kts | 22° |
| 2026-05-05 00:14 | 58.35292 | -134.55368 | 33 ft | 14 kts | 299° |
| 2026-05-05 00:14 | 58.35321 | -134.55562 | 33 ft | 16 kts | 283° |
| 2026-05-05 00:15 | 58.35350 | -134.55753 | 33 ft | 14 kts | 282° |
| 2026-05-05 00:15 | 58.35370 | -134.55922 | 32 ft | 12 kts | 282° |
| 2026-05-05 00:15 | 58.35388 | -134.56068 | 33 ft | 11 kts | 284° |
| 2026-05-05 00:15 | 58.35419 | -134.56296 | 33 ft | 20 kts | 285° |
| 2026-05-05 00:16 | 58.35458 | -134.56555 | 32 ft | 20 kts | 284° |
| 2026-05-05 00:16 | 58.35489 | -134.56793 | 32 ft | 18 kts | 283° |
| 2026-05-05 00:16 | 58.35518 | -134.57008 | 33 ft | 16 kts | 283° |
| 2026-05-05 00:16 | 58.35558 | -134.57276 | 33 ft | 27 kts | 285° |
| 2026-05-05 00:17 | 58.35604 | -134.57628 | 33 ft | 27 kts | 286° |
| 2026-05-05 00:17 | 58.35656 | -134.57959 | 33 ft | 25 kts | 287° |
| 2026-05-05 00:17 | 58.35696 | -134.58229 | 33 ft | 14 kts | 285° |
| 2026-05-05 00:17 | 58.35755 | -134.58316 | 33 ft | 9 kts | 327° |
| 2026-05-05 00:18 | 58.35783 | -134.58392 | 33 ft | 6 kts | 328° |
| 2026-05-05 00:18 | 58.35813 | -134.58385 | 33 ft | 3 kts | 17° |
| 2026-05-05 00:18 | 58.35821 | -134.58379 | 33 ft | 0 kts | 21° |
| 2026-05-05 00:18 | 58.35830 | -134.58371 | 33 ft | 4 kts | 22° |
| 2026-05-05 00:19 | 58.35833 | -134.58369 | 33 ft | 0 kts | 22° |